sensor_id;sensor_type;location;lat;lon;timestamp;P1;durP1;ratioP1;P2;durP2;ratioP2
54201;SDS011;40108;53.152;5.844;2022-08-01T06:24:49;11.82;;;2.40;;
54201;SDS011;40108;53.152;5.844;2022-08-01T06:28:31;16.85;;;3.53;;
54201;SDS011;40108;53.152;5.844;2022-08-01T06:31:42;13.68;;;2.05;;
54201;SDS011;40108;53.152;5.844;2022-08-01T06:34:27;12.40;;;2.28;;
54201;SDS011;40108;53.152;5.844;2022-08-01T06:41:23;19.75;;;2.65;;
54201;SDS011;40108;53.152;5.844;2022-08-01T06:47:51;18.75;;;2.72;;
54201;SDS011;40108;53.152;5.844;2022-08-01T07:01:41;19.40;;;3.53;;
54201;SDS011;40108;53.152;5.844;2022-08-01T07:04:58;18.60;;;2.28;;
54201;SDS011;40108;53.152;5.844;2022-08-01T07:26:42;16.10;;;2.10;;
54201;SDS011;40108;53.152;5.844;2022-08-01T07:33:48;12.80;;;2.40;;
54201;SDS011;40108;53.152;5.844;2022-08-01T12:06:54;12.20;;;2.33;;
54201;SDS011;40108;53.152;5.844;2022-08-01T12:10:12;8.10;;;1.35;;
54201;SDS011;40108;53.152;5.844;2022-08-01T12:13:05;4.47;;;1.02;;
54201;SDS011;40108;53.152;5.844;2022-08-01T12:16:28;6.38;;;1.25;;
54201;SDS011;40108;53.152;5.844;2022-08-01T12:19:20;6.53;;;1.20;;
54201;SDS011;40108;53.152;5.844;2022-08-01T12:24:43;9.43;;;1.20;;
54201;SDS011;40108;53.152;5.844;2022-08-01T12:30:41;9.02;;;1.30;;
54201;SDS011;40108;53.152;5.844;2022-08-01T12:33:16;11.07;;;1.60;;
54201;SDS011;40108;53.152;5.844;2022-08-01T12:36:01;5.18;;;1.08;;
54201;SDS011;40108;53.152;5.844;2022-08-01T12:39:10;13.00;;;1.63;;
54201;SDS011;40108;53.152;5.844;2022-08-01T12:41:46;13.55;;;1.90;;
54201;SDS011;40108;53.152;5.844;2022-08-01T12:47:16;3.90;;;0.95;;
54201;SDS011;40108;53.152;5.844;2022-08-01T12:49:50;5.40;;;1.00;;
54201;SDS011;40108;53.152;5.844;2022-08-01T12:52:21;4.40;;;0.93;;
54201;SDS011;40108;53.152;5.844;2022-08-01T12:55:00;5.38;;;0.90;;
54201;SDS011;40108;53.152;5.844;2022-08-01T12:57:40;6.65;;;1.13;;
54201;SDS011;40108;53.152;5.844;2022-08-01T13:00:22;8.77;;;1.17;;
54201;SDS011;40108;53.152;5.844;2022-08-01T13:03:02;6.30;;;1.13;;
54201;SDS011;40108;53.152;5.844;2022-08-01T13:05:47;12.60;;;1.52;;
54201;SDS011;40108;53.152;5.844;2022-08-01T13:08:23;5.55;;;1.00;;
54201;SDS011;40108;53.152;5.844;2022-08-01T13:11:31;6.90;;;1.20;;
54201;SDS011;40108;53.152;5.844;2022-08-01T13:13:40;5.25;;;1.13;;
54201;SDS011;40108;53.152;5.844;2022-08-01T13:16:19;5.13;;;0.95;;
54201;SDS011;40108;53.152;5.844;2022-08-01T13:18:50;5.57;;;1.08;;
54201;SDS011;40108;53.152;5.844;2022-08-01T13:21:28;6.63;;;1.23;;
54201;SDS011;40108;53.152;5.844;2022-08-01T13:32:39;4.32;;;1.10;;
54201;SDS011;40108;53.152;5.844;2022-08-01T13:35:09;7.72;;;1.27;;
54201;SDS011;40108;53.152;5.844;2022-08-01T13:37:40;5.28;;;0.80;;
54201;SDS011;40108;53.152;5.844;2022-08-01T13:40:07;7.18;;;0.90;;
54201;SDS011;40108;53.152;5.844;2022-08-01T13:42:35;6.25;;;0.80;;
54201;SDS011;40108;53.152;5.844;2022-08-01T13:45:02;6.50;;;1.00;;
54201;SDS011;40108;53.152;5.844;2022-08-01T13:47:32;6.75;;;1.10;;
54201;SDS011;40108;53.152;5.844;2022-08-01T13:50:01;6.32;;;1.00;;
54201;SDS011;40108;53.152;5.844;2022-08-01T13:52:30;8.48;;;1.23;;
54201;SDS011;40108;53.152;5.844;2022-08-01T13:54:58;8.90;;;0.98;;
54201;SDS011;40108;53.152;5.844;2022-08-01T13:57:25;6.53;;;0.98;;
54201;SDS011;40108;53.152;5.844;2022-08-01T13:59:51;8.45;;;1.33;;
54201;SDS011;40108;53.152;5.844;2022-08-01T14:02:26;5.70;;;1.23;;
54201;SDS011;40108;53.152;5.844;2022-08-01T14:04:53;8.23;;;1.48;;
54201;SDS011;40108;53.152;5.844;2022-08-01T14:07:24;9.85;;;1.00;;
54201;SDS011;40108;53.152;5.844;2022-08-01T14:09:50;4.80;;;1.00;;
54201;SDS011;40108;53.152;5.844;2022-08-01T14:12:18;7.53;;;1.35;;
54201;SDS011;40108;53.152;5.844;2022-08-01T14:14:44;6.88;;;1.10;;
54201;SDS011;40108;53.152;5.844;2022-08-01T14:17:13;7.95;;;1.27;;
54201;SDS011;40108;53.152;5.844;2022-08-01T14:19:38;6.53;;;1.10;;
54201;SDS011;40108;53.152;5.844;2022-08-01T14:22:07;6.55;;;1.13;;
54201;SDS011;40108;53.152;5.844;2022-08-01T14:24:33;6.10;;;0.90;;
54201;SDS011;40108;53.152;5.844;2022-08-01T14:26:59;8.45;;;1.35;;
54201;SDS011;40108;53.152;5.844;2022-08-01T14:29:28;9.35;;;1.15;;
54201;SDS011;40108;53.152;5.844;2022-08-01T14:31:56;6.25;;;0.90;;
54201;SDS011;40108;53.152;5.844;2022-08-01T14:34:22;9.50;;;1.23;;
54201;SDS011;40108;53.152;5.844;2022-08-01T14:36:50;4.47;;;0.80;;
54201;SDS011;40108;53.152;5.844;2022-08-01T14:39:18;6.00;;;1.08;;
54201;SDS011;40108;53.152;5.844;2022-08-01T14:41:44;4.28;;;0.82;;
54201;SDS011;40108;53.152;5.844;2022-08-01T14:44:10;5.28;;;1.30;;
54201;SDS011;40108;53.152;5.844;2022-08-01T14:46:36;6.00;;;1.80;;
54201;SDS011;40108;53.152;5.844;2022-08-01T14:49:06;3.47;;;0.80;;
54201;SDS011;40108;53.152;5.844;2022-08-01T14:51:32;3.30;;;0.93;;
54201;SDS011;40108;53.152;5.844;2022-08-01T14:54:03;4.45;;;0.75;;
54201;SDS011;40108;53.152;5.844;2022-08-01T14:56:29;6.45;;;0.80;;
54201;SDS011;40108;53.152;5.844;2022-08-01T14:58:57;8.32;;;1.17;;
54201;SDS011;40108;53.152;5.844;2022-08-01T15:01:24;2.97;;;0.80;;
54201;SDS011;40108;53.152;5.844;2022-08-01T15:03:52;4.80;;;0.90;;
54201;SDS011;40108;53.152;5.844;2022-08-01T15:06:18;4.47;;;0.80;;
54201;SDS011;40108;53.152;5.844;2022-08-01T15:08:43;5.93;;;1.13;;
54201;SDS011;40108;53.152;5.844;2022-08-01T15:11:09;5.28;;;1.00;;
54201;SDS011;40108;53.152;5.844;2022-08-01T15:13:35;5.13;;;1.02;;
54201;SDS011;40108;53.152;5.844;2022-08-01T15:16:01;4.07;;;0.93;;
54201;SDS011;40108;53.152;5.844;2022-08-01T15:18:29;6.60;;;0.82;;
54201;SDS011;40108;53.152;5.844;2022-08-01T15:21:01;8.23;;;1.15;;
54201;SDS011;40108;53.152;5.844;2022-08-01T15:23:27;9.88;;;1.27;;
54201;SDS011;40108;53.152;5.844;2022-08-01T15:25:52;6.05;;;0.90;;
54201;SDS011;40108;53.152;5.844;2022-08-01T15:28:18;12.25;;;1.55;;
54201;SDS011;40108;53.152;5.844;2022-08-01T15:30:45;8.60;;;1.30;;
54201;SDS011;40108;53.152;5.844;2022-08-01T15:33:10;5.80;;;1.00;;
54201;SDS011;40108;53.152;5.844;2022-08-01T15:35:38;4.88;;;1.05;;
54201;SDS011;40108;53.152;5.844;2022-08-01T15:38:04;5.32;;;1.00;;
54201;SDS011;40108;53.152;5.844;2022-08-01T15:40:30;7.93;;;2.00;;
54201;SDS011;40108;53.152;5.844;2022-08-01T15:42:59;6.07;;;1.15;;
54201;SDS011;40108;53.152;5.844;2022-08-01T15:45:25;4.60;;;1.13;;
54201;SDS011;40108;53.152;5.844;2022-08-01T15:47:51;6.00;;;1.55;;
54201;SDS011;40108;53.152;5.844;2022-08-01T15:50:19;7.25;;;1.25;;
54201;SDS011;40108;53.152;5.844;2022-08-01T15:52:48;6.75;;;1.02;;
54201;SDS011;40108;53.152;5.844;2022-08-01T15:55:13;6.90;;;1.20;;
54201;SDS011;40108;53.152;5.844;2022-08-01T15:57:39;8.93;;;1.65;;
54201;SDS011;40108;53.152;5.844;2022-08-01T16:00:08;6.35;;;1.08;;
54201;SDS011;40108;53.152;5.844;2022-08-01T16:02:39;7.90;;;1.33;;
54201;SDS011;40108;53.152;5.844;2022-08-01T16:05:05;7.88;;;1.20;;
54201;SDS011;40108;53.152;5.844;2022-08-01T16:07:34;4.80;;;1.00;;
54201;SDS011;40108;53.152;5.844;2022-08-01T16:10:00;5.70;;;1.00;;
54201;SDS011;40108;53.152;5.844;2022-08-01T16:12:25;7.63;;;1.05;;
54201;SDS011;40108;53.152;5.844;2022-08-01T16:14:51;5.38;;;1.00;;
54201;SDS011;40108;53.152;5.844;2022-08-01T16:17:18;10.88;;;1.50;;
54201;SDS011;40108;53.152;5.844;2022-08-01T16:19:46;6.13;;;1.50;;
54201;SDS011;40108;53.152;5.844;2022-08-01T16:22:11;6.88;;;1.02;;
54201;SDS011;40108;53.152;5.844;2022-08-01T16:24:37;5.57;;;1.08;;
54201;SDS011;40108;53.152;5.844;2022-08-01T16:27:04;6.20;;;1.27;;
54201;SDS011;40108;53.152;5.844;2022-08-01T16:29:30;9.18;;;1.02;;
54201;SDS011;40108;53.152;5.844;2022-08-01T16:31:56;7.57;;;1.17;;
54201;SDS011;40108;53.152;5.844;2022-08-01T16:34:22;8.00;;;1.13;;
54201;SDS011;40108;53.152;5.844;2022-08-01T16:36:48;7.53;;;1.10;;
54201;SDS011;40108;53.152;5.844;2022-08-01T16:39:20;6.07;;;1.05;;
54201;SDS011;40108;53.152;5.844;2022-08-01T16:41:46;8.13;;;1.20;;
54201;SDS011;40108;53.152;5.844;2022-08-01T16:44:12;6.25;;;1.10;;
54201;SDS011;40108;53.152;5.844;2022-08-01T16:46:40;7.75;;;1.00;;
54201;SDS011;40108;53.152;5.844;2022-08-01T16:49:06;7.05;;;1.20;;
54201;SDS011;40108;53.152;5.844;2022-08-01T16:51:34;8.57;;;1.58;;
54201;SDS011;40108;53.152;5.844;2022-08-01T16:54:02;5.75;;;1.02;;
54201;SDS011;40108;53.152;5.844;2022-08-01T16:56:31;7.10;;;1.52;;
54201;SDS011;40108;53.152;5.844;2022-08-01T16:58:56;7.47;;;1.38;;
54201;SDS011;40108;53.152;5.844;2022-08-01T17:01:22;6.72;;;0.77;;
54201;SDS011;40108;53.152;5.844;2022-08-01T17:03:52;6.85;;;1.30;;
54201;SDS011;40108;53.152;5.844;2022-08-01T17:06:18;7.00;;;1.27;;
54201;SDS011;40108;53.152;5.844;2022-08-01T17:08:47;7.60;;;0.98;;
54201;SDS011;40108;53.152;5.844;2022-08-01T17:11:14;5.32;;;1.00;;
54201;SDS011;40108;53.152;5.844;2022-08-01T17:13:40;9.18;;;1.30;;
54201;SDS011;40108;53.152;5.844;2022-08-01T17:16:07;9.43;;;0.80;;
54201;SDS011;40108;53.152;5.844;2022-08-01T17:18:33;7.00;;;1.10;;
54201;SDS011;40108;53.152;5.844;2022-08-01T17:20:59;10.05;;;1.25;;
54201;SDS011;40108;53.152;5.844;2022-08-01T17:23:27;6.50;;;1.38;;
54201;SDS011;40108;53.152;5.844;2022-08-01T17:25:53;8.07;;;1.10;;
54201;SDS011;40108;53.152;5.844;2022-08-01T17:28:21;7.95;;;1.00;;
54201;SDS011;40108;53.152;5.844;2022-08-01T17:30:47;8.70;;;1.30;;
54201;SDS011;40108;53.152;5.844;2022-08-01T17:33:13;6.40;;;1.00;;
54201;SDS011;40108;53.152;5.844;2022-08-01T17:35:38;8.02;;;1.35;;
54201;SDS011;40108;53.152;5.844;2022-08-01T17:38:04;17.92;;;2.22;;
54201;SDS011;40108;53.152;5.844;2022-08-01T17:40:30;7.05;;;1.00;;
54201;SDS011;40108;53.152;5.844;2022-08-01T17:42:56;13.70;;;1.52;;
54201;SDS011;40108;53.152;5.844;2022-08-01T17:45:24;7.10;;;1.33;;
54201;SDS011;40108;53.152;5.844;2022-08-01T17:47:50;10.80;;;1.35;;
54201;SDS011;40108;53.152;5.844;2022-08-01T17:50:18;6.47;;;1.30;;
54201;SDS011;40108;53.152;5.844;2022-08-01T17:52:46;6.57;;;1.45;;
54201;SDS011;40108;53.152;5.844;2022-08-01T17:55:12;8.27;;;1.65;;
54201;SDS011;40108;53.152;5.844;2022-08-01T17:57:38;7.72;;;1.55;;
54201;SDS011;40108;53.152;5.844;2022-08-01T18:00:04;7.47;;;1.23;;
54201;SDS011;40108;53.152;5.844;2022-08-01T18:02:34;8.68;;;1.15;;
54201;SDS011;40108;53.152;5.844;2022-08-01T18:05:00;11.65;;;1.80;;
54201;SDS011;40108;53.152;5.844;2022-08-01T18:07:26;9.50;;;1.60;;
54201;SDS011;40108;53.152;5.844;2022-08-01T18:09:52;13.98;;;2.47;;
54201;SDS011;40108;53.152;5.844;2022-08-01T18:12:20;14.48;;;2.35;;
54201;SDS011;40108;53.152;5.844;2022-08-01T18:14:48;9.88;;;1.38;;
54201;SDS011;40108;53.152;5.844;2022-08-01T18:17:14;8.93;;;1.38;;
54201;SDS011;40108;53.152;5.844;2022-08-01T18:19:40;8.23;;;1.40;;
54201;SDS011;40108;53.152;5.844;2022-08-01T18:22:06;7.47;;;1.60;;
54201;SDS011;40108;53.152;5.844;2022-08-01T18:24:32;9.27;;;1.38;;
54201;SDS011;40108;53.152;5.844;2022-08-01T18:26:58;8.20;;;1.50;;
54201;SDS011;40108;53.152;5.844;2022-08-01T18:29:24;10.02;;;1.48;;
54201;SDS011;40108;53.152;5.844;2022-08-01T18:31:52;7.90;;;1.50;;
54201;SDS011;40108;53.152;5.844;2022-08-01T18:34:20;12.23;;;1.65;;
54201;SDS011;40108;53.152;5.844;2022-08-01T18:36:45;9.10;;;1.55;;
54201;SDS011;40108;53.152;5.844;2022-08-01T18:39:14;7.15;;;1.92;;
54201;SDS011;40108;53.152;5.844;2022-08-01T18:41:43;8.38;;;1.20;;
54201;SDS011;40108;53.152;5.844;2022-08-01T18:44:08;10.15;;;1.42;;
54201;SDS011;40108;53.152;5.844;2022-08-01T18:46:35;12.02;;;1.75;;
54201;SDS011;40108;53.152;5.844;2022-08-01T18:49:02;8.68;;;1.33;;
54201;SDS011;40108;53.152;5.844;2022-08-01T18:51:29;10.75;;;1.90;;
54201;SDS011;40108;53.152;5.844;2022-08-01T18:53:54;9.07;;;1.50;;
54201;SDS011;40108;53.152;5.844;2022-08-01T18:56:21;9.75;;;2.63;;
54201;SDS011;40108;53.152;5.844;2022-08-01T18:58:47;9.40;;;1.55;;
54201;SDS011;40108;53.152;5.844;2022-08-01T19:01:13;12.60;;;1.83;;
54201;SDS011;40108;53.152;5.844;2022-08-01T19:03:39;10.13;;;2.00;;
54201;SDS011;40108;53.152;5.844;2022-08-01T19:06:06;12.40;;;2.40;;
54201;SDS011;40108;53.152;5.844;2022-08-01T19:08:34;11.35;;;1.20;;
54201;SDS011;40108;53.152;5.844;2022-08-01T19:11:02;10.25;;;1.95;;
54201;SDS011;40108;53.152;5.844;2022-08-01T19:13:28;9.43;;;1.80;;
54201;SDS011;40108;53.152;5.844;2022-08-01T19:15:55;11.73;;;1.60;;
54201;SDS011;40108;53.152;5.844;2022-08-01T19:18:22;7.30;;;1.70;;
54201;SDS011;40108;53.152;5.844;2022-08-01T19:20:49;11.15;;;1.60;;
54201;SDS011;40108;53.152;5.844;2022-08-01T19:23:15;10.77;;;1.13;;
54201;SDS011;40108;53.152;5.844;2022-08-01T19:26:02;12.45;;;1.60;;
54201;SDS011;40108;53.152;5.844;2022-08-01T19:28:44;8.57;;;1.10;;
54201;SDS011;40108;53.152;5.844;2022-08-01T19:31:15;7.80;;;1.48;;
54201;SDS011;40108;53.152;5.844;2022-08-01T19:33:50;11.55;;;2.28;;
54201;SDS011;40108;53.152;5.844;2022-08-01T19:36:16;9.45;;;1.50;;
54201;SDS011;40108;53.152;5.844;2022-08-01T19:38:48;11.00;;;2.00;;
54201;SDS011;40108;53.152;5.844;2022-08-01T19:41:15;10.70;;;1.63;;
54201;SDS011;40108;53.152;5.844;2022-08-01T19:43:44;8.10;;;1.75;;
54201;SDS011;40108;53.152;5.844;2022-08-01T19:46:11;10.10;;;1.63;;
54201;SDS011;40108;53.152;5.844;2022-08-01T19:48:37;7.65;;;1.40;;
54201;SDS011;40108;53.152;5.844;2022-08-01T19:51:07;11.07;;;2.40;;
54201;SDS011;40108;53.152;5.844;2022-08-01T19:53:41;9.38;;;1.63;;
54201;SDS011;40108;53.152;5.844;2022-08-01T19:56:08;7.40;;;1.83;;
54201;SDS011;40108;53.152;5.844;2022-08-01T19:58:37;11.90;;;2.13;;
54201;SDS011;40108;53.152;5.844;2022-08-01T20:01:07;13.32;;;2.08;;
54201;SDS011;40108;53.152;5.844;2022-08-01T20:03:36;8.85;;;2.22;;
54201;SDS011;40108;53.152;5.844;2022-08-01T20:06:07;12.43;;;2.28;;
54201;SDS011;40108;53.152;5.844;2022-08-01T20:08:33;9.27;;;1.90;;
54201;SDS011;40108;53.152;5.844;2022-08-01T20:11:00;14.40;;;2.25;;
54201;SDS011;40108;53.152;5.844;2022-08-01T20:13:29;11.30;;;2.47;;
54201;SDS011;40108;53.152;5.844;2022-08-01T20:15:55;14.00;;;2.67;;
54201;SDS011;40108;53.152;5.844;2022-08-01T20:18:22;11.00;;;2.60;;
54201;SDS011;40108;53.152;5.844;2022-08-01T20:20:48;15.60;;;2.83;;
54201;SDS011;40108;53.152;5.844;2022-08-01T20:23:16;16.10;;;2.40;;
54201;SDS011;40108;53.152;5.844;2022-08-01T20:25:43;11.57;;;2.30;;
54201;SDS011;40108;53.152;5.844;2022-08-01T20:28:12;11.90;;;2.42;;
54201;SDS011;40108;53.152;5.844;2022-08-01T20:30:39;7.30;;;2.38;;
54201;SDS011;40108;53.152;5.844;2022-08-01T20:33:06;13.52;;;2.28;;
54201;SDS011;40108;53.152;5.844;2022-08-01T20:35:37;12.43;;;2.20;;
54201;SDS011;40108;53.152;5.844;2022-08-01T20:38:03;9.43;;;2.10;;
54201;SDS011;40108;53.152;5.844;2022-08-01T20:40:30;9.98;;;2.20;;
54201;SDS011;40108;53.152;5.844;2022-08-01T20:42:56;12.93;;;3.00;;
54201;SDS011;40108;53.152;5.844;2022-08-01T20:45:23;11.00;;;2.00;;
54201;SDS011;40108;53.152;5.844;2022-08-01T20:47:50;6.88;;;1.83;;
54201;SDS011;40108;53.152;5.844;2022-08-01T20:50:18;10.82;;;1.98;;
54201;SDS011;40108;53.152;5.844;2022-08-01T20:53:05;10.40;;;1.92;;
54201;SDS011;40108;53.152;5.844;2022-08-01T20:55:37;12.00;;;2.20;;
54201;SDS011;40108;53.152;5.844;2022-08-01T20:58:20;10.38;;;2.17;;
54201;SDS011;40108;53.152;5.844;2022-08-01T21:00:55;9.85;;;2.28;;
54201;SDS011;40108;53.152;5.844;2022-08-01T21:03:24;10.02;;;1.88;;
54201;SDS011;40108;53.152;5.844;2022-08-01T21:06:03;8.45;;;1.95;;
54201;SDS011;40108;53.152;5.844;2022-08-01T21:08:43;11.73;;;2.10;;
54201;SDS011;40108;53.152;5.844;2022-08-01T21:11:20;13.52;;;2.20;;
54201;SDS011;40108;53.152;5.844;2022-08-01T21:13:49;14.15;;;2.53;;
54201;SDS011;40108;53.152;5.844;2022-08-01T21:16:17;7.95;;;2.20;;
54201;SDS011;40108;53.152;5.844;2022-08-01T21:18:56;9.75;;;2.40;;
54201;SDS011;40108;53.152;5.844;2022-08-01T21:21:25;13.57;;;2.78;;
54201;SDS011;40108;53.152;5.844;2022-08-01T21:26:30;12.73;;;2.75;;
54201;SDS011;40108;53.152;5.844;2022-08-01T21:29:00;12.90;;;2.70;;
54201;SDS011;40108;53.152;5.844;2022-08-01T21:31:32;9.70;;;2.55;;
54201;SDS011;40108;53.152;5.844;2022-08-01T21:34:03;12.40;;;2.63;;
54201;SDS011;40108;53.152;5.844;2022-08-01T21:36:34;10.80;;;2.42;;
54201;SDS011;40108;53.152;5.844;2022-08-01T21:39:01;10.63;;;2.40;;
54201;SDS011;40108;53.152;5.844;2022-08-01T21:41:29;11.57;;;2.55;;
54201;SDS011;40108;53.152;5.844;2022-08-01T21:43:59;8.55;;;2.15;;
54201;SDS011;40108;53.152;5.844;2022-08-01T21:46:26;9.82;;;2.50;;
54201;SDS011;40108;53.152;5.844;2022-08-01T21:48:54;11.02;;;2.92;;
54201;SDS011;40108;53.152;5.844;2022-08-01T22:05:02;10.40;;;2.33;;
54201;SDS011;40108;53.152;5.844;2022-08-01T22:07:38;5.22;;;2.53;;
54201;SDS011;40108;53.152;5.844;2022-08-01T22:10:14;11.10;;;2.65;;
54201;SDS011;40108;53.152;5.844;2022-08-01T22:12:41;10.73;;;2.63;;
54201;SDS011;40108;53.152;5.844;2022-08-01T22:15:10;8.18;;;2.53;;
54201;SDS011;40108;53.152;5.844;2022-08-01T22:17:38;10.00;;;2.80;;
54201;SDS011;40108;53.152;5.844;2022-08-01T22:20:05;10.50;;;2.97;;
54201;SDS011;40108;53.152;5.844;2022-08-01T22:22:34;7.85;;;2.30;;
54201;SDS011;40108;53.152;5.844;2022-08-01T22:25:01;12.40;;;2.90;;
54201;SDS011;40108;53.152;5.844;2022-08-01T22:27:27;12.38;;;2.35;;
54201;SDS011;40108;53.152;5.844;2022-08-01T22:29:56;8.73;;;2.97;;
54201;SDS011;40108;53.152;5.844;2022-08-01T22:32:38;10.88;;;2.67;;
54201;SDS011;40108;53.152;5.844;2022-08-01T22:35:10;10.57;;;2.70;;
54201;SDS011;40108;53.152;5.844;2022-08-01T22:37:38;11.82;;;3.13;;
54201;SDS011;40108;53.152;5.844;2022-08-01T22:40:08;11.52;;;2.92;;
54201;SDS011;40108;53.152;5.844;2022-08-01T22:42:38;7.63;;;2.97;;
54201;SDS011;40108;53.152;5.844;2022-08-01T22:45:22;13.05;;;3.15;;
54201;SDS011;40108;53.152;5.844;2022-08-01T22:48:15;9.27;;;2.85;;
54201;SDS011;40108;53.152;5.844;2022-08-01T22:50:45;11.40;;;2.75;;
54201;SDS011;40108;53.152;5.844;2022-08-01T22:56:10;10.15;;;3.28;;
54201;SDS011;40108;53.152;5.844;2022-08-01T22:58:38;12.13;;;3.03;;
54201;SDS011;40108;53.152;5.844;2022-08-01T23:01:06;11.57;;;2.95;;
54201;SDS011;40108;53.152;5.844;2022-08-01T23:03:40;8.35;;;3.50;;
54201;SDS011;40108;53.152;5.844;2022-08-01T23:06:10;10.90;;;4.10;;
54201;SDS011;40108;53.152;5.844;2022-08-01T23:08:41;10.13;;;3.92;;
54201;SDS011;40108;53.152;5.844;2022-08-01T23:11:12;9.82;;;3.95;;
54201;SDS011;40108;53.152;5.844;2022-08-01T23:13:39;8.75;;;3.78;;
54201;SDS011;40108;53.152;5.844;2022-08-01T23:16:06;12.52;;;3.97;;
54201;SDS011;40108;53.152;5.844;2022-08-01T23:18:32;10.95;;;3.47;;
54201;SDS011;40108;53.152;5.844;2022-08-01T23:20:59;10.57;;;3.67;;
54201;SDS011;40108;53.152;5.844;2022-08-01T23:23:27;7.97;;;3.30;;
54201;SDS011;40108;53.152;5.844;2022-08-01T23:25:58;11.20;;;3.53;;
54201;SDS011;40108;53.152;5.844;2022-08-01T23:28:25;7.60;;;3.65;;
54201;SDS011;40108;53.152;5.844;2022-08-01T23:30:52;12.60;;;4.38;;
54201;SDS011;40108;53.152;5.844;2022-08-01T23:33:18;9.45;;;3.15;;
54201;SDS011;40108;53.152;5.844;2022-08-01T23:35:46;8.20;;;3.53;;
54201;SDS011;40108;53.152;5.844;2022-08-01T23:38:12;11.73;;;3.40;;
54201;SDS011;40108;53.152;5.844;2022-08-01T23:40:40;12.65;;;4.03;;
54201;SDS011;40108;53.152;5.844;2022-08-01T23:43:10;7.88;;;3.25;;
54201;SDS011;40108;53.152;5.844;2022-08-01T23:45:39;9.07;;;3.85;;
54201;SDS011;40108;53.152;5.844;2022-08-01T23:48:05;9.90;;;3.95;;
54201;SDS011;40108;53.152;5.844;2022-08-01T23:50:31;8.32;;;3.55;;
54201;SDS011;40108;53.152;5.844;2022-08-01T23:52:56;10.48;;;3.28;;
54201;SDS011;40108;53.152;5.844;2022-08-01T23:55:22;13.68;;;3.97;;
54201;SDS011;40108;53.152;5.844;2022-08-01T23:57:48;14.80;;;3.95;;
